createdAt,value
2022-09-07T00:00:11.201Z,434
2022-09-07T00:01:03.113Z,441
2022-09-07T00:01:54.992Z,445
2022-09-07T00:02:47.001Z,438
2022-09-07T00:03:38.805Z,435
2022-09-07T00:04:30.768Z,445
2022-09-07T00:05:22.601Z,437
2022-09-07T00:06:14.515Z,447
2022-09-07T00:07:06.370Z,448
2022-09-07T00:07:58.322Z,447
2022-09-07T00:08:50.211Z,447
2022-09-07T00:09:42.124Z,454
2022-09-07T00:10:33.911Z,442
2022-09-07T00:11:25.839Z,440
2022-09-07T00:12:17.818Z,444
2022-09-07T00:13:09.723Z,449
2022-09-07T00:14:01.641Z,449
2022-09-07T00:14:53.524Z,449
2022-09-07T00:15:45.543Z,444
2022-09-07T00:16:37.396Z,445
2022-09-07T00:17:29.216Z,445
2022-09-07T00:18:21.119Z,470
2022-09-07T00:19:13.009Z,472
2022-09-07T00:20:04.886Z,454
2022-09-07T00:20:56.713Z,452
2022-09-07T00:21:48.725Z,448
2022-09-07T00:22:40.599Z,452
2022-09-07T00:23:32.519Z,443
2022-09-07T00:24:24.407Z,443
2022-09-07T00:25:16.248Z,446
2022-09-07T00:26:08.219Z,442
2022-09-07T00:27:00.122Z,451
2022-09-07T00:27:52.023Z,439
2022-09-07T00:28:43.905Z,438
2022-09-07T00:29:35.844Z,439
2022-09-07T00:30:27.739Z,436
2022-09-07T00:31:19.725Z,443
2022-09-07T00:32:11.543Z,446
2022-09-07T00:33:03.460Z,441
2022-09-07T00:33:55.356Z,439
2022-09-07T00:34:47.252Z,435
2022-09-07T00:35:39.170Z,442
2022-09-07T00:36:31.053Z,436
2022-09-07T00:37:22.978Z,439
2022-09-07T00:38:14.858Z,434
2022-09-07T00:39:06.795Z,438
2022-09-07T00:39:58.719Z,447
2022-09-07T00:40:50.591Z,440
2022-09-07T00:41:42.483Z,441
2022-09-07T00:42:34.405Z,441
2022-09-07T00:43:26.247Z,465
2022-09-07T00:44:18.196Z,466
2022-09-07T00:45:10.093Z,464
2022-09-07T00:46:02.104Z,465
2022-09-07T00:46:53.877Z,472
2022-09-07T00:47:45.695Z,470
2022-09-07T00:48:37.586Z,464
2022-09-07T00:49:29.438Z,465
2022-09-07T00:50:21.289Z,478
2022-09-07T00:51:13.178Z,457
2022-09-07T00:52:05.024Z,467
2022-09-07T00:52:56.901Z,461
2022-09-07T00:53:48.743Z,450
2022-09-07T00:54:40.617Z,467
2022-09-07T00:55:32.477Z,455
2022-09-07T00:56:24.340Z,452
2022-09-07T00:57:16.124Z,457
2022-09-07T00:58:08.070Z,452
2022-09-07T00:58:59.915Z,455
2022-09-07T00:59:51.776Z,450
2022-09-07T01:00:43.630Z,458
2022-09-07T01:01:35.656Z,457
2022-09-07T01:02:27.437Z,456
2022-09-07T01:03:19.241Z,448
2022-09-07T01:04:11.085Z,445
2022-09-07T01:05:06.420Z,455
2022-09-07T01:05:54.827Z,446
2022-09-07T01:06:46.683Z,442
2022-09-07T01:07:38.574Z,433
2022-09-07T01:08:30.558Z,432
2022-09-07T01:09:22.342Z,434
2022-09-07T01:10:14.227Z,433
2022-09-07T01:11:06.024Z,438
2022-09-07T01:11:57.985Z,433
2022-09-07T01:12:49.856Z,436
2022-09-07T01:13:41.742Z,438
2022-09-07T01:14:33.653Z,446
2022-09-07T01:15:25.508Z,448
2022-09-07T01:16:17.482Z,441
2022-09-07T01:17:09.272Z,453
2022-09-07T01:18:01.159Z,463
2022-09-07T01:18:53.040Z,469
2022-09-07T01:19:44.920Z,461
2022-09-07T01:20:36.805Z,453
2022-09-07T01:21:28.684Z,460
2022-09-07T01:22:20.561Z,472
2022-09-07T01:23:12.442Z,452
2022-09-07T01:24:04.338Z,453
2022-09-07T01:24:56.131Z,437
2022-09-07T01:25:48.264Z,441
2022-09-07T01:26:39.975Z,444
2022-09-07T01:27:31.884Z,447
2022-09-07T01:28:23.734Z,447
2022-09-07T01:29:15.630Z,442
2022-09-07T01:30:07.513Z,431
2022-09-07T01:30:59.431Z,433
2022-09-07T01:31:51.272Z,435
2022-09-07T01:32:43.170Z,430
2022-09-07T01:33:35.058Z,426
2022-09-07T01:34:26.931Z,438
2022-09-07T01:35:18.819Z,438
2022-09-07T01:36:10.692Z,433
2022-09-07T01:37:02.578Z,427
2022-09-07T01:37:56.982Z,434
2022-09-07T01:38:46.264Z,431
2022-09-07T01:39:38.262Z,439
2022-09-07T01:40:30.104Z,430
2022-09-07T01:41:21.997Z,426
2022-09-07T01:42:13.936Z,430
2022-09-07T01:43:05.762Z,422
2022-09-07T01:43:57.632Z,422
2022-09-07T01:44:49.528Z,442
2022-09-07T01:45:41.436Z,432
2022-09-07T01:46:33.359Z,440
2022-09-07T01:47:25.167Z,423
2022-09-07T01:48:17.063Z,430
2022-09-07T01:49:08.953Z,430
2022-09-07T01:50:00.888Z,429
2022-09-07T01:50:52.703Z,435
2022-09-07T01:51:44.653Z,447
2022-09-07T01:52:36.387Z,438
2022-09-07T01:53:28.344Z,440
2022-09-07T01:54:20.229Z,444
2022-09-07T01:55:12.113Z,445
2022-09-07T01:56:03.976Z,450
2022-09-07T01:56:55.885Z,437
2022-09-07T01:57:47.734Z,430
2022-09-07T01:58:39.609Z,424
2022-09-07T01:59:31.459Z,422
2022-09-07T02:00:23.362Z,425
2022-09-07T02:01:15.346Z,416
2022-09-07T02:02:07.158Z,412
2022-09-07T02:02:59.071Z,415
2022-09-07T02:03:50.907Z,411
2022-09-07T02:04:42.766Z,414
2022-09-07T02:05:34.656Z,416
2022-09-07T02:06:26.476Z,416
2022-09-07T02:07:18.391Z,420
2022-09-07T02:08:10.262Z,417
2022-09-07T02:09:02.170Z,421
2022-09-07T02:09:54.019Z,412
2022-09-07T02:10:45.926Z,419
2022-09-07T02:11:37.784Z,432
2022-09-07T02:12:29.661Z,420
2022-09-07T02:13:21.534Z,423
2022-09-07T02:14:13.420Z,426
2022-09-07T02:15:05.289Z,425
2022-09-07T02:15:57.249Z,425
2022-09-07T02:16:49.057Z,428
2022-09-07T02:17:40.983Z,436
2022-09-07T02:18:32.825Z,424
2022-09-07T02:19:24.739Z,419
2022-09-07T02:20:16.531Z,418
2022-09-07T02:21:08.510Z,423
2022-09-07T02:22:00.347Z,428
2022-09-07T02:22:52.281Z,422
2022-09-07T02:23:44.136Z,417
2022-09-07T02:24:36.039Z,413
2022-09-07T02:25:27.879Z,419
2022-09-07T02:26:19.814Z,426
2022-09-07T02:27:11.654Z,432
2022-09-07T02:28:03.567Z,435
2022-09-07T02:28:55.426Z,437
2022-09-07T02:29:47.322Z,426
2022-09-07T02:30:39.247Z,426
2022-09-07T02:31:31.123Z,440
2022-09-07T02:32:22.973Z,450
2022-09-07T02:33:14.862Z,452
2022-09-07T02:34:06.653Z,442
2022-09-07T02:34:58.638Z,455
2022-09-07T02:35:50.493Z,440
2022-09-07T02:36:42.409Z,438
2022-09-07T02:37:34.275Z,448
2022-09-07T02:38:26.154Z,421
2022-09-07T02:39:18.035Z,419
2022-09-07T02:40:09.995Z,410
2022-09-07T02:41:01.810Z,418
2022-09-07T02:41:53.759Z,421
2022-09-07T02:42:45.589Z,420
2022-09-07T02:43:37.485Z,424
2022-09-07T02:44:29.336Z,416
2022-09-07T02:45:21.247Z,414
2022-09-07T02:46:13.192Z,416
2022-09-07T02:47:04.991Z,414
2022-09-07T02:47:56.800Z,413
2022-09-07T02:48:48.736Z,417
2022-09-07T02:49:40.595Z,418
2022-09-07T02:50:32.480Z,417
2022-09-07T02:51:24.340Z,427
2022-09-07T02:52:16.149Z,417
2022-09-07T02:53:08.086Z,422
2022-09-07T02:53:59.973Z,438
2022-09-07T02:54:51.838Z,447
2022-09-07T02:55:43.719Z,450
2022-09-07T02:56:35.582Z,436
2022-09-07T02:57:27.465Z,441
2022-09-07T02:58:19.347Z,427
2022-09-07T02:59:11.217Z,424
2022-09-07T03:00:03.206Z,428
2022-09-07T03:00:54.971Z,428
2022-09-07T03:01:46.838Z,432
2022-09-07T03:02:38.757Z,435
2022-09-07T03:03:30.606Z,433
2022-09-07T03:04:22.477Z,428
2022-09-07T03:05:14.364Z,422
2022-09-07T03:06:06.188Z,425
2022-09-07T03:06:58.104Z,426
2022-09-07T03:07:49.996Z,421
2022-09-07T03:08:41.851Z,427
2022-09-07T03:09:33.740Z,431
2022-09-07T03:10:25.619Z,431
2022-09-07T03:11:17.511Z,431
2022-09-07T03:12:09.359Z,435
2022-09-07T03:13:01.146Z,433
2022-09-07T03:13:53.105Z,437
2022-09-07T03:14:45.004Z,447
2022-09-07T03:15:36.913Z,449
2022-09-07T03:16:28.756Z,439
2022-09-07T03:17:20.625Z,429
2022-09-07T03:18:12.492Z,422
2022-09-07T03:19:04.365Z,417
2022-09-07T03:19:56.199Z,415
2022-09-07T03:20:48.111Z,411
2022-09-07T03:21:39.991Z,411
2022-09-07T03:22:31.849Z,413
2022-09-07T03:23:23.711Z,425
2022-09-07T03:24:15.586Z,427
2022-09-07T03:25:07.445Z,439
2022-09-07T03:25:59.330Z,452
2022-09-07T03:26:51.205Z,454
2022-09-07T03:27:43.084Z,457
2022-09-07T03:28:34.946Z,441
2022-09-07T03:29:26.775Z,431
2022-09-07T03:30:18.691Z,424
2022-09-07T03:31:10.597Z,420
2022-09-07T03:32:02.436Z,420
2022-09-07T03:32:54.285Z,413
2022-09-07T03:33:46.167Z,415
2022-09-07T03:34:38.060Z,418
2022-09-07T03:35:29.913Z,425
2022-09-07T03:36:21.772Z,428
2022-09-07T03:37:13.648Z,437
2022-09-07T03:38:05.511Z,455
2022-09-07T03:38:57.407Z,447
2022-09-07T03:39:49.337Z,443
2022-09-07T03:40:41.134Z,438
2022-09-07T03:41:33.010Z,443
2022-09-07T03:42:24.874Z,445
2022-09-07T03:43:16.674Z,447
2022-09-07T03:44:08.622Z,456
2022-09-07T03:45:00.527Z,444
2022-09-07T03:45:52.402Z,447
2022-09-07T03:46:44.250Z,458
2022-09-07T03:47:36.141Z,442
2022-09-07T03:48:28.000Z,440
2022-09-07T03:49:19.883Z,449
2022-09-07T03:50:11.760Z,444
2022-09-07T03:51:03.635Z,437
2022-09-07T03:51:55.513Z,436
2022-09-07T03:52:47.380Z,432
2022-09-07T03:53:39.287Z,438
2022-09-07T03:54:31.308Z,445
2022-09-07T03:55:23.016Z,438
2022-09-07T03:56:14.919Z,435
2022-09-07T03:57:06.662Z,425
2022-09-07T03:57:58.657Z,424
2022-09-07T03:58:50.501Z,430
2022-09-07T03:59:42.421Z,417
2022-09-07T04:00:34.273Z,420
2022-09-07T04:01:26.234Z,428
2022-09-07T04:02:18.098Z,434
2022-09-07T04:03:09.916Z,441
2022-09-07T04:04:02.394Z,444
2022-09-07T04:04:53.658Z,448
2022-09-07T04:05:45.518Z,442
2022-09-07T04:06:37.406Z,434
2022-09-07T04:07:29.273Z,427
2022-09-07T04:08:21.168Z,437
2022-09-07T04:09:13.040Z,449
2022-09-07T04:10:04.906Z,432
2022-09-07T04:10:56.702Z,432
2022-09-07T04:11:48.667Z,433
2022-09-07T04:12:40.529Z,444
2022-09-07T04:13:32.415Z,440
2022-09-07T04:14:24.285Z,443
2022-09-07T04:15:16.165Z,435
2022-09-07T04:16:08.034Z,430
2022-09-07T04:16:59.967Z,433
2022-09-07T04:17:51.791Z,434
2022-09-07T04:18:43.676Z,432
2022-09-07T04:19:35.547Z,426
2022-09-07T04:20:27.432Z,435
2022-09-07T04:21:19.297Z,434
2022-09-07T04:22:11.165Z,438
2022-09-07T04:23:03.041Z,441
2022-09-07T04:23:54.910Z,442
2022-09-07T04:24:46.737Z,432
2022-09-07T04:25:38.691Z,424
2022-09-07T04:26:30.530Z,430
2022-09-07T04:27:22.408Z,439
2022-09-07T04:28:14.272Z,435
2022-09-07T04:29:06.153Z,434
2022-09-07T04:29:58.018Z,435
2022-09-07T04:30:49.953Z,432
2022-09-07T04:31:41.760Z,430
2022-09-07T04:32:33.649Z,438
2022-09-07T04:33:25.503Z,444
2022-09-07T04:34:17.419Z,433
2022-09-07T04:35:09.253Z,436
2022-09-07T04:36:01.149Z,438
2022-09-07T04:36:53.000Z,444
2022-09-07T04:37:44.867Z,443
2022-09-07T04:38:36.783Z,449
2022-09-07T04:39:28.682Z,449
2022-09-07T04:40:20.496Z,461
2022-09-07T04:41:12.354Z,447
2022-09-07T04:42:04.226Z,439
2022-09-07T04:42:56.106Z,442
2022-09-07T04:43:47.970Z,439
2022-09-07T04:44:39.849Z,435
2022-09-07T04:45:31.704Z,427
2022-09-07T04:46:23.657Z,424
2022-09-07T04:47:15.450Z,442
2022-09-07T04:48:07.323Z,440
2022-09-07T04:48:59.187Z,443
2022-09-07T04:49:51.064Z,435
2022-09-07T04:50:42.927Z,445
2022-09-07T04:51:34.823Z,443
2022-09-07T04:52:26.612Z,436
2022-09-07T04:53:18.546Z,424
2022-09-07T04:54:10.414Z,434
2022-09-07T04:55:02.257Z,441
2022-09-07T04:55:54.139Z,451
2022-09-07T04:56:46.041Z,447
2022-09-07T04:57:37.878Z,450
2022-09-07T04:58:29.948Z,446
2022-09-07T04:59:21.597Z,441
2022-09-07T05:00:13.482Z,442
2022-09-07T05:01:05.393Z,441
2022-09-07T05:01:57.275Z,443
2022-09-07T05:02:49.137Z,451
2022-09-07T05:03:40.960Z,460
2022-09-07T05:04:32.813Z,453
2022-09-07T05:05:24.709Z,450
2022-09-07T05:06:16.470Z,450
2022-09-07T05:07:08.447Z,451
2022-09-07T05:08:00.312Z,440
2022-09-07T05:08:52.171Z,448
2022-09-07T05:09:44.032Z,445
2022-09-07T05:10:35.913Z,443
2022-09-07T05:11:29.089Z,441
2022-09-07T05:12:19.677Z,427
2022-09-07T05:13:11.522Z,452
2022-09-07T05:14:03.387Z,448
2022-09-07T05:14:55.261Z,451
2022-09-07T05:15:47.095Z,454
2022-09-07T05:16:39.081Z,448
2022-09-07T05:17:30.860Z,456
2022-09-07T05:18:22.728Z,457
2022-09-07T05:19:14.626Z,458
2022-09-07T05:20:06.392Z,454
2022-09-07T05:20:58.346Z,448
2022-09-07T05:21:50.204Z,442
2022-09-07T05:22:42.086Z,448
2022-09-07T05:23:33.945Z,459
2022-09-07T05:24:25.814Z,466
2022-09-07T05:25:17.691Z,454
2022-09-07T05:26:09.570Z,458
2022-09-07T05:27:01.405Z,453
2022-09-07T05:27:53.300Z,462
2022-09-07T05:28:45.184Z,467
2022-09-07T05:30:04.227Z,458
2022-09-07T05:31:20.899Z,457
2022-09-07T05:32:12.682Z,463
2022-09-07T05:33:04.508Z,462
2022-09-07T05:34:50.869Z,458
2022-09-07T05:35:40.111Z,453
2022-09-07T05:36:31.987Z,455
2022-09-07T05:37:23.860Z,454
2022-09-07T05:38:15.701Z,449
2022-09-07T05:39:07.587Z,440
2022-09-07T05:39:59.498Z,448
2022-09-07T05:40:51.318Z,450
2022-09-07T05:41:43.181Z,452
2022-09-07T05:42:35.056Z,456
2022-09-07T05:43:26.862Z,453
2022-09-07T05:44:45.652Z,450
2022-09-07T05:45:10.652Z,446
2022-09-07T05:46:02.600Z,451
2022-09-07T05:46:54.418Z,453
2022-09-07T05:47:46.257Z,450
2022-09-07T05:48:38.109Z,451
2022-09-07T05:49:29.986Z,452
2022-09-07T05:50:21.845Z,445
2022-09-07T05:51:13.725Z,452
2022-09-07T05:52:05.586Z,456
2022-09-07T05:52:57.466Z,445
2022-09-07T05:53:49.313Z,453
2022-09-07T05:54:41.204Z,458
2022-09-07T05:55:33.068Z,450
2022-09-07T05:56:24.907Z,446
2022-09-07T05:57:16.719Z,451
2022-09-07T05:58:08.651Z,452
2022-09-07T05:59:00.539Z,440
2022-09-07T05:59:52.376Z,440
2022-09-07T06:00:44.273Z,443
2022-09-07T06:01:36.125Z,447
2022-09-07T06:02:28.213Z,453
2022-09-07T06:03:20.023Z,452
2022-09-07T06:04:11.741Z,451
2022-09-07T06:05:03.564Z,459
2022-09-07T06:05:55.473Z,452
2022-09-07T06:06:59.306Z,451
2022-09-07T06:07:39.215Z,450
2022-09-07T06:08:31.126Z,456
2022-09-07T06:09:24.556Z,459
2022-09-07T06:10:44.372Z,454
2022-09-07T06:11:06.595Z,454
2022-09-07T06:11:58.561Z,457
2022-09-07T06:12:50.414Z,455
2022-09-07T06:13:42.270Z,460
2022-09-07T06:14:34.165Z,451
2022-09-07T06:15:26.006Z,458
2022-09-07T06:16:17.911Z,458
2022-09-07T06:17:09.736Z,456
2022-09-07T06:18:01.609Z,460
2022-09-07T06:18:53.497Z,466
2022-09-07T06:19:45.340Z,456
2022-09-07T06:20:37.131Z,461
2022-09-07T06:21:29.091Z,463
2022-09-07T06:22:20.968Z,469
2022-09-07T06:23:12.836Z,468
2022-09-07T06:24:04.713Z,467
2022-09-07T06:24:56.517Z,460
2022-09-07T06:25:48.446Z,471
2022-09-07T06:26:40.320Z,476
2022-09-07T06:27:32.190Z,464
2022-09-07T06:28:24.068Z,459
2022-09-07T06:29:15.944Z,453
2022-09-07T06:30:07.828Z,454
2022-09-07T06:30:59.716Z,464
2022-09-07T06:32:43.958Z,480
2022-09-07T06:33:35.522Z,461
2022-09-07T06:34:27.142Z,459
2022-09-07T06:35:19.044Z,460
2022-09-07T06:36:10.920Z,453
2022-09-07T06:37:02.789Z,442
2022-09-07T06:37:54.671Z,442
2022-09-07T06:38:46.531Z,459
2022-09-07T06:39:38.471Z,475
2022-09-07T06:40:30.300Z,466
2022-09-07T06:42:14.041Z,465
2022-09-07T06:43:05.903Z,455
2022-09-07T06:43:57.806Z,461
2022-09-07T06:44:49.651Z,470
2022-09-07T06:45:41.554Z,463
2022-09-07T06:47:03.124Z,464
2022-09-07T06:47:25.280Z,468
2022-09-07T06:48:17.134Z,464
2022-09-07T06:49:09.027Z,470
2022-09-07T06:50:00.892Z,472
2022-09-07T06:50:52.779Z,470
2022-09-07T06:51:44.645Z,464
2022-09-07T06:53:35.635Z,463
2022-09-07T06:55:12.111Z,462
2022-09-07T06:56:04.016Z,455
2022-09-07T06:56:55.860Z,455
2022-09-07T06:57:47.760Z,452
2022-09-07T06:58:42.430Z,456
2022-09-07T06:59:31.476Z,448
2022-09-07T07:00:23.321Z,460
2022-09-07T07:01:15.304Z,458
2022-09-07T07:02:06.994Z,451
2022-09-07T07:02:59.018Z,449
2022-09-07T07:03:50.793Z,454
2022-09-07T07:04:42.673Z,459
2022-09-07T07:05:34.524Z,449
2022-09-07T07:06:26.399Z,460
2022-09-07T07:07:18.273Z,457
2022-09-07T07:08:10.131Z,453
2022-09-07T07:09:02.004Z,454
2022-09-07T07:09:53.859Z,452
2022-09-07T07:10:45.722Z,452
2022-09-07T07:11:37.592Z,449
2022-09-07T07:14:13.253Z,455
2022-09-07T07:15:05.049Z,456
2022-09-07T07:15:56.882Z,457
2022-09-07T07:16:48.830Z,456
2022-09-07T07:17:40.659Z,455
2022-09-07T07:18:32.826Z,470
2022-09-07T07:19:24.398Z,460
2022-09-07T07:20:16.265Z,462
2022-09-07T07:21:08.144Z,454
2022-09-07T07:22:23.765Z,460
2022-09-07T07:22:51.889Z,460
2022-09-07T07:23:43.797Z,469
2022-09-07T07:24:35.627Z,463
2022-09-07T07:25:27.496Z,448
2022-09-07T07:26:19.384Z,462
2022-09-07T07:27:11.255Z,468
2022-09-07T07:29:03.380Z,479
2022-09-07T07:29:46.846Z,461
2022-09-07T07:30:38.765Z,467
2022-09-07T07:31:30.654Z,473
2022-09-07T07:32:22.521Z,473
2022-09-07T07:33:14.446Z,462
2022-09-07T07:34:06.343Z,466
2022-09-07T07:34:58.151Z,478
2022-09-07T07:35:50.027Z,460
2022-09-07T07:36:41.895Z,458
2022-09-07T07:37:33.774Z,460
2022-09-07T07:40:18.518Z,457
2022-09-07T07:41:53.283Z,444
2022-09-07T07:42:44.979Z,430
2022-09-07T07:43:36.805Z,419
2022-09-07T07:44:28.726Z,428
2022-09-07T07:46:12.479Z,459
2022-09-07T07:47:04.434Z,468
2022-09-07T07:47:56.185Z,468
2022-09-07T07:48:48.070Z,462
2022-09-07T07:49:39.940Z,457
2022-09-07T07:50:32.765Z,457
2022-09-07T07:51:23.815Z,455
2022-09-07T07:53:59.518Z,445
2022-09-07T07:54:51.151Z,443
2022-09-07T07:55:43.633Z,446
2022-09-07T07:56:34.924Z,450
2022-09-07T07:57:26.688Z,455
2022-09-07T07:58:18.649Z,443
2022-09-07T07:59:13.794Z,447
2022-09-07T08:00:02.381Z,464
2022-09-07T08:00:55.416Z,471
2022-09-07T08:01:46.337Z,464
2022-09-07T08:02:38.028Z,463
2022-09-07T08:03:29.953Z,471
2022-09-07T08:04:21.741Z,455
2022-09-07T08:05:13.632Z,470
2022-09-07T08:06:05.486Z,462
2022-09-07T08:06:57.283Z,459
2022-09-07T08:07:49.228Z,457
2022-09-07T08:08:41.173Z,461
2022-09-07T08:09:32.978Z,461
2022-09-07T08:10:24.843Z,460
2022-09-07T08:11:16.703Z,457
2022-09-07T08:12:08.581Z,456
2022-09-07T08:13:00.479Z,458
2022-09-07T08:13:52.331Z,458
2022-09-07T08:14:44.205Z,459
2022-09-07T08:15:36.059Z,450
2022-09-07T08:16:28.031Z,461
2022-09-07T08:17:19.800Z,467
2022-09-07T08:18:11.691Z,464
2022-09-07T08:19:03.559Z,455
2022-09-07T08:19:55.434Z,451
2022-09-07T08:20:47.224Z,463
2022-09-07T08:21:39.167Z,456
2022-09-07T08:22:34.671Z,452
2022-09-07T08:23:22.911Z,453
2022-09-07T08:24:14.812Z,460
2022-09-07T08:25:06.662Z,459
2022-09-07T08:25:58.566Z,446
2022-09-07T08:26:50.414Z,442
2022-09-07T08:27:42.310Z,444
2022-09-07T08:28:34.165Z,452
2022-09-07T08:29:27.145Z,448
2022-09-07T08:30:17.941Z,451
2022-09-07T08:31:09.843Z,446
2022-09-07T08:32:01.711Z,444
2022-09-07T08:32:53.538Z,449
2022-09-07T08:33:45.421Z,450
2022-09-07T08:34:37.284Z,476
2022-09-07T08:35:29.169Z,483
2022-09-07T08:36:21.031Z,475
2022-09-07T08:37:12.905Z,475
2022-09-07T08:38:04.737Z,466
2022-09-07T08:38:56.687Z,470
2022-09-07T08:39:48.576Z,479
2022-09-07T08:40:40.409Z,477
2022-09-07T08:41:32.255Z,467
2022-09-07T08:42:24.125Z,473
2022-09-07T08:43:16.007Z,471
2022-09-07T08:44:07.879Z,476
2022-09-07T08:44:59.758Z,464
2022-09-07T08:45:51.575Z,469
2022-09-07T08:46:43.481Z,474
2022-09-07T08:47:35.308Z,460
2022-09-07T08:48:27.108Z,467
2022-09-07T08:49:19.029Z,471
2022-09-07T08:50:10.903Z,473
2022-09-07T08:51:02.767Z,465
2022-09-07T08:51:54.625Z,461
2022-09-07T08:52:46.472Z,468
2022-09-07T08:53:38.349Z,465
2022-09-07T08:54:30.199Z,475
2022-09-07T08:55:22.056Z,484
2022-09-07T08:56:13.919Z,467
2022-09-07T08:57:21.470Z,463
2022-09-07T08:57:57.552Z,459
2022-09-07T08:58:50.160Z,465
2022-09-07T08:59:41.335Z,457
2022-09-07T09:00:33.118Z,464
2022-09-07T09:01:32.850Z,474
2022-09-07T09:02:36.572Z,472
2022-09-07T09:03:31.196Z,460
2022-09-07T09:04:17.241Z,455
2022-09-07T09:05:18.342Z,452
2022-09-07T09:05:44.516Z,448
2022-09-07T09:06:36.321Z,439
2022-09-07T09:07:28.096Z,433
2022-09-07T09:08:19.948Z,441
2022-09-07T09:09:11.825Z,438
2022-09-07T09:10:03.679Z,431
2022-09-07T09:10:55.561Z,435
2022-09-07T09:11:47.384Z,434
2022-09-07T09:12:39.289Z,427
2022-09-07T09:13:31.225Z,431
2022-09-07T09:14:23.066Z,421
2022-09-07T09:15:14.903Z,427
2022-09-07T09:16:06.785Z,428
2022-09-07T09:16:58.655Z,424
2022-09-07T09:17:50.507Z,426
2022-09-07T09:18:42.387Z,425
2022-09-07T09:19:34.254Z,418
2022-09-07T09:20:26.126Z,421
2022-09-07T09:21:18.006Z,429
2022-09-07T09:22:09.881Z,424
2022-09-07T09:23:01.671Z,426
2022-09-07T09:23:53.614Z,425
2022-09-07T09:24:45.507Z,428
2022-09-07T09:25:37.267Z,424
2022-09-07T09:26:29.246Z,421
2022-09-07T09:27:21.139Z,422
2022-09-07T09:28:12.990Z,423
2022-09-07T09:29:04.862Z,422
2022-09-07T09:29:56.755Z,436
2022-09-07T09:30:48.627Z,453
2022-09-07T09:31:40.589Z,460
2022-09-07T09:32:32.348Z,454
2022-09-07T09:33:24.199Z,447
2022-09-07T09:34:16.055Z,437
2022-09-07T09:35:07.922Z,444
2022-09-07T09:35:59.787Z,439
2022-09-07T09:36:51.648Z,439
2022-09-07T09:37:43.535Z,435
2022-09-07T09:38:35.373Z,438
2022-09-07T09:39:27.316Z,439
2022-09-07T09:40:19.163Z,437
2022-09-07T09:41:10.959Z,446
2022-09-07T09:42:02.869Z,436
2022-09-07T09:42:54.694Z,432
2022-09-07T09:43:46.559Z,423
2022-09-07T09:44:38.430Z,430
2022-09-07T09:45:30.382Z,424
2022-09-07T09:46:22.163Z,423
2022-09-07T09:47:29.854Z,428
2022-09-07T09:48:05.890Z,438
2022-09-07T09:48:57.757Z,435
2022-09-07T09:49:49.606Z,446
2022-09-07T09:52:30.437Z,442
2022-09-07T09:53:16.970Z,439
2022-09-07T09:54:08.922Z,444
2022-09-07T09:55:23.643Z,438
2022-09-07T09:55:52.694Z,446
2022-09-07T09:56:44.521Z,440
2022-09-07T09:57:36.574Z,446
2022-09-07T10:00:16.539Z,464
2022-09-07T10:01:26.034Z,486
2022-09-07T10:04:31.319Z,476
2022-09-07T10:05:23.226Z,490
2022-09-07T10:06:15.095Z,475
2022-09-07T10:07:06.925Z,459
2022-09-07T10:07:58.716Z,457
2022-09-07T10:08:50.697Z,463
2022-09-07T10:09:42.570Z,482
2022-09-07T10:10:34.661Z,483
2022-09-07T10:12:04.946Z,479
2022-09-07T10:12:18.205Z,462
2022-09-07T10:13:10.060Z,456
2022-09-07T10:14:01.961Z,465
2022-09-07T10:14:53.821Z,468
2022-09-07T10:15:45.714Z,462
2022-09-07T10:16:37.498Z,466
2022-09-07T10:17:29.422Z,496
2022-09-07T10:18:21.381Z,468
2022-09-07T10:19:13.140Z,475
2022-09-07T10:20:05.025Z,466
2022-09-07T10:20:56.867Z,453
2022-09-07T10:21:48.747Z,449
2022-09-07T10:22:40.641Z,447
2022-09-07T10:23:32.491Z,448
2022-09-07T10:24:24.356Z,454
2022-09-07T10:25:16.226Z,440
2022-09-07T10:26:08.096Z,444
2022-09-07T10:26:59.969Z,441
2022-09-07T10:27:51.831Z,450
2022-09-07T10:29:07.739Z,447
2022-09-07T10:29:36.109Z,429
2022-09-07T10:30:27.431Z,429
2022-09-07T10:31:19.421Z,442
2022-09-07T10:32:11.190Z,442
2022-09-07T10:33:03.046Z,445
2022-09-07T10:34:46.796Z,439
2022-09-07T10:35:38.666Z,435
2022-09-07T10:36:30.545Z,431
2022-09-07T10:37:22.412Z,436
2022-09-07T10:38:15.081Z,439
2022-09-07T10:39:06.077Z,441
2022-09-07T10:40:00.454Z,444
2022-09-07T10:40:49.886Z,438
2022-09-07T10:41:41.756Z,449
2022-09-07T10:42:33.627Z,451
2022-09-07T10:43:25.496Z,440
2022-09-07T10:44:17.276Z,434
2022-09-07T10:45:09.243Z,433
2022-09-07T10:46:01.173Z,442
2022-09-07T10:46:56.692Z,442
2022-09-07T10:47:44.865Z,443
2022-09-07T10:48:36.730Z,437
2022-09-07T10:49:28.608Z,448
2022-09-07T10:50:23.683Z,437
2022-09-07T10:51:14.207Z,433
2022-09-07T10:52:04.213Z,441
2022-09-07T10:52:56.103Z,426
2022-09-07T10:54:29.314Z,433
2022-09-07T10:54:39.861Z,438
2022-09-07T10:55:31.697Z,438
2022-09-07T10:56:23.589Z,442
2022-09-07T10:57:15.445Z,446
2022-09-07T10:58:07.252Z,458
2022-09-07T10:59:03.407Z,450
2022-09-07T11:00:09.173Z,446
2022-09-07T11:00:42.918Z,446
2022-09-07T11:01:34.860Z,448
2022-09-07T11:02:26.724Z,450
2022-09-07T11:03:26.078Z,446
2022-09-07T11:04:10.395Z,434
2022-09-07T11:05:02.232Z,427
2022-09-07T11:05:54.194Z,435
2022-09-07T11:06:45.970Z,426
2022-09-07T11:07:37.846Z,434
2022-09-07T11:08:29.925Z,428
2022-09-07T11:09:21.775Z,430
2022-09-07T11:10:13.446Z,434
2022-09-07T11:11:05.286Z,432
2022-09-07T11:12:03.649Z,432
2022-09-07T11:12:49.201Z,440
2022-09-07T11:14:01.800Z,429
2022-09-07T11:14:32.755Z,425
2022-09-07T11:15:24.638Z,437
2022-09-07T11:17:08.373Z,421
2022-09-07T11:18:00.219Z,447
2022-09-07T11:18:52.258Z,441
2022-09-07T11:19:43.959Z,443
2022-09-07T11:20:35.811Z,440
2022-09-07T11:21:56.569Z,431
2022-09-07T11:22:19.538Z,454
2022-09-07T11:23:11.495Z,446
2022-09-07T11:24:03.263Z,456
2022-09-07T11:25:46.969Z,442
2022-09-07T11:26:38.839Z,444
2022-09-07T11:27:30.698Z,445
2022-09-07T11:28:22.561Z,432
2022-09-07T11:29:29.976Z,438
2022-09-07T11:30:06.301Z,431
2022-09-07T11:31:00.110Z,439
2022-09-07T11:31:50.026Z,435
2022-09-07T11:32:41.916Z,425
2022-09-07T11:33:33.762Z,437
2022-09-07T11:34:25.766Z,436
2022-09-07T11:35:17.439Z,429
2022-09-07T11:36:11.937Z,440
2022-09-07T11:37:01.244Z,428
2022-09-07T11:37:53.097Z,445
2022-09-07T11:38:45.015Z,450
2022-09-07T11:39:36.934Z,441
2022-09-07T11:40:28.693Z,464
2022-09-07T11:41:20.541Z,454
2022-09-07T11:42:42.932Z,441
2022-09-07T11:43:04.274Z,443
2022-09-07T11:43:56.123Z,444
2022-09-07T11:44:47.993Z,445
2022-09-07T11:45:39.834Z,442
2022-09-07T11:46:31.805Z,440
2022-09-07T11:47:23.554Z,450
2022-09-07T11:48:19.569Z,446
2022-09-07T11:49:07.277Z,448
2022-09-07T11:49:59.620Z,439
2022-09-07T11:50:50.973Z,442
2022-09-07T11:51:42.845Z,442
2022-09-07T11:52:34.713Z,448
2022-09-07T11:53:26.553Z,431
2022-09-07T11:54:18.423Z,430
2022-09-07T11:55:10.288Z,438
2022-09-07T11:56:02.106Z,447
2022-09-07T11:56:53.980Z,443
2022-09-07T11:57:45.813Z,449
2022-09-07T11:58:37.598Z,446
2022-09-07T11:59:32.477Z,445
2022-09-07T12:00:21.366Z,443
2022-09-07T12:01:13.220Z,444
2022-09-07T12:02:05.174Z,427
2022-09-07T12:02:59.786Z,432
2022-09-07T12:03:48.941Z,436
2022-09-07T12:04:40.705Z,430
2022-09-07T12:05:32.496Z,436
2022-09-07T12:06:24.353Z,436
2022-09-07T12:07:16.209Z,434
2022-09-07T12:08:08.071Z,429
2022-09-07T12:08:59.927Z,423
2022-09-07T12:09:51.788Z,431
2022-09-07T12:10:43.658Z,427
2022-09-07T12:11:35.447Z,426
2022-09-07T12:12:27.322Z,438
2022-09-07T12:13:19.252Z,424
2022-09-07T12:14:11.112Z,426
2022-09-07T12:15:03.049Z,434
2022-09-07T12:15:54.951Z,432